createdAt,value
2022-11-01T00:02:02.240Z,38.17
2022-11-01T00:04:29.063Z,32.15
2022-11-01T00:06:55.870Z,30.77
2022-11-01T00:09:22.540Z,32.97
2022-11-01T00:11:49.306Z,34.10
2022-11-01T00:14:18.101Z,28.33
2022-11-01T00:16:44.968Z,32.67
2022-11-01T00:19:12.465Z,28.27
2022-11-01T00:21:39.138Z,34.08
2022-11-01T00:24:06.256Z,29.17
2022-11-01T00:26:32.999Z,32.65
2022-11-01T00:28:59.731Z,31.80
2022-11-01T00:31:26.503Z,32.25
2022-11-01T00:33:53.173Z,35.40
2022-11-01T00:36:19.804Z,29.10
2022-11-01T00:38:50.574Z,24.90
2022-11-01T00:41:19.434Z,23.35
2022-11-01T00:43:46.356Z,22.98
2022-11-01T00:46:12.992Z,18.48
2022-11-01T00:48:39.662Z,19.85
2022-11-01T00:51:06.311Z,18.38
2022-11-01T00:53:32.934Z,16.95
2022-11-01T00:56:01.549Z,14.85
2022-11-01T00:58:28.257Z,19.13
2022-11-01T01:00:55.173Z,11.48
2022-11-01T01:03:22.266Z,13.65
2022-11-01T01:05:50.004Z,13.95
2022-11-01T01:08:16.914Z,13.30
2022-11-01T01:10:45.062Z,12.50
2022-11-01T01:13:11.686Z,12.40
2022-11-01T01:15:39.613Z,10.00
2022-11-01T01:18:06.456Z,10.25
2022-11-01T01:20:33.842Z,11.98
2022-11-01T01:23:00.557Z,12.27
2022-11-01T01:25:27.548Z,9.18
2022-11-01T01:27:55.878Z,8.65
2022-11-01T01:30:22.653Z,5.97
2022-11-01T01:32:49.334Z,6.70
2022-11-01T01:35:16.158Z,11.85
2022-11-01T01:37:42.833Z,6.15
2022-11-01T01:40:09.982Z,7.30
2022-11-01T01:42:41.027Z,9.02
2022-11-01T01:45:15.520Z,10.15
2022-11-01T01:47:45.625Z,9.82
2022-11-01T01:50:13.887Z,10.25
2022-11-01T01:52:47.952Z,8.52
2022-11-01T01:55:19.030Z,8.68
2022-11-01T01:57:46.407Z,8.40
2022-11-01T02:00:13.553Z,6.03
2022-11-01T02:02:42.166Z,5.43
2022-11-01T02:05:20.493Z,5.75
2022-11-01T02:07:47.644Z,4.70
2022-11-01T02:10:15.751Z,6.13
2022-11-01T02:12:47.837Z,6.38
2022-11-01T02:15:16.385Z,3.97
2022-11-01T02:18:04.446Z,7.13
2022-11-01T02:21:09.269Z,6.47
2022-11-01T02:24:09.318Z,6.57
2022-11-01T02:27:14.205Z,6.57
2022-11-01T02:30:14.324Z,6.15
2022-11-01T02:33:04.021Z,4.35
2022-11-01T02:35:54.845Z,4.85
2022-11-01T02:38:28.305Z,6.60
2022-11-01T02:41:03.696Z,5.47
2022-11-01T02:43:39.865Z,4.97
2022-11-01T02:46:41.989Z,6.13
2022-11-01T02:49:13.064Z,6.78
2022-11-01T02:51:40.473Z,3.22
2022-11-01T02:54:08.493Z,4.82
2022-11-01T02:56:35.742Z,4.82
2022-11-01T02:59:02.579Z,5.07
2022-11-01T03:01:34.521Z,5.38
2022-11-01T03:04:02.291Z,3.85
2022-11-01T03:06:41.583Z,4.55
2022-11-01T03:09:12.202Z,5.18
2022-11-01T03:12:02.594Z,4.57
2022-11-01T03:14:48.665Z,3.38
2022-11-01T03:17:25.638Z,3.10
2022-11-01T03:19:58.162Z,5.30
2022-11-01T03:22:46.336Z,3.65
2022-11-01T03:25:44.522Z,4.32
2022-11-01T03:28:21.514Z,7.60
2022-11-01T03:30:56.768Z,3.83
2022-11-01T03:33:25.670Z,5.55
2022-11-01T03:35:56.317Z,4.47
2022-11-01T03:38:29.138Z,5.72
2022-11-01T03:41:00.605Z,4.72
2022-11-01T03:43:30.200Z,5.80
2022-11-01T03:45:57.133Z,4.93
2022-11-01T03:48:23.802Z,8.80
2022-11-01T03:50:52.441Z,3.78
2022-11-01T03:53:19.610Z,4.20
2022-11-01T03:55:46.203Z,12.65
2022-11-01T03:58:12.975Z,4.00
2022-11-01T04:00:42.642Z,6.00
2022-11-01T04:03:11.142Z,10.48
2022-11-01T04:05:40.545Z,6.68
2022-11-01T04:08:08.829Z,3.25
2022-11-01T04:10:35.814Z,7.53
2022-11-01T04:13:03.504Z,7.90
2022-11-01T04:15:48.846Z,6.80
2022-11-01T04:18:34.965Z,3.88
2022-11-01T04:21:06.007Z,6.28
2022-11-01T04:23:33.671Z,5.00
2022-11-01T04:26:00.523Z,11.88
2022-11-01T04:28:27.229Z,22.50
2022-11-01T04:30:54.446Z,4.25
2022-11-01T04:33:21.114Z,20.02
2022-11-01T04:35:47.932Z,5.88
2022-11-01T04:38:14.805Z,7.50
2022-11-01T04:40:42.673Z,7.47
2022-11-01T04:43:10.476Z,9.77
2022-11-01T04:45:37.093Z,5.05
2022-11-01T04:48:16.985Z,7.78
2022-11-01T04:50:45.528Z,7.20
2022-11-01T04:53:12.408Z,4.93
2022-11-01T04:55:39.249Z,4.85
2022-11-01T04:58:06.786Z,7.35
2022-11-01T05:00:34.028Z,9.55
2022-11-01T05:03:06.079Z,5.05
2022-11-01T05:10:34.684Z,7.30
2022-11-01T05:13:02.520Z,9.07
2022-11-01T05:15:29.469Z,8.73
2022-11-01T05:17:56.618Z,6.90
2022-11-01T05:20:23.795Z,9.85
2022-11-01T05:22:50.450Z,4.80
2022-11-01T05:25:18.183Z,6.60
2022-11-01T05:27:44.821Z,6.28
2022-11-01T05:30:12.098Z,7.82
2022-11-01T05:32:38.697Z,5.25
2022-11-01T05:35:06.312Z,6.22
2022-11-01T05:37:33.178Z,4.90
2022-11-01T05:39:59.815Z,10.45
2022-11-01T05:42:26.522Z,13.88
2022-11-01T05:44:53.208Z,4.82
2022-11-01T05:47:19.849Z,13.85
2022-11-01T05:49:46.434Z,7.32
2022-11-01T05:52:13.062Z,11.27
2022-11-01T05:54:39.646Z,4.72
2022-11-01T05:57:06.304Z,4.30
2022-11-01T05:59:32.914Z,10.18
2022-11-01T06:01:59.806Z,11.82
2022-11-01T06:04:26.509Z,12.02
2022-11-01T06:06:53.145Z,10.55
2022-11-01T06:09:22.402Z,11.30
2022-11-01T06:11:49.087Z,13.88
2022-11-01T06:14:15.772Z,9.93
2022-11-01T06:16:44.467Z,9.00
2022-11-01T06:19:11.149Z,10.15
2022-11-01T06:21:37.839Z,6.80
2022-11-01T06:24:04.670Z,5.43
2022-11-01T06:26:32.287Z,8.73
2022-11-01T06:29:02.769Z,4.00
2022-11-01T06:31:29.667Z,9.77
2022-11-01T06:33:56.333Z,12.43
2022-11-01T06:36:23.363Z,13.13
2022-11-01T06:38:50.076Z,11.23
2022-11-01T06:41:16.987Z,8.52
2022-11-01T06:43:43.608Z,11.18
2022-11-01T06:46:10.280Z,15.10
2022-11-01T06:48:36.908Z,8.52
2022-11-01T06:51:04.886Z,13.27
2022-11-01T06:53:31.582Z,8.23
2022-11-01T06:55:59.973Z,15.60
2022-11-01T06:58:27.632Z,10.63
2022-11-01T07:00:54.344Z,9.98
2022-11-01T07:03:21.096Z,8.98
2022-11-01T07:05:49.586Z,14.15
2022-11-01T07:08:16.416Z,10.27
2022-11-01T07:10:43.908Z,11.30
2022-11-01T07:13:13.370Z,8.77
2022-11-01T07:15:40.455Z,11.85
2022-11-01T07:18:10.601Z,10.27
2022-11-01T07:20:44.144Z,7.45
2022-11-01T07:23:15.714Z,5.80
2022-11-01T07:25:43.279Z,6.32
2022-11-01T07:28:10.785Z,8.27
2022-11-01T07:30:37.629Z,7.05
2022-11-01T07:33:05.737Z,6.97
2022-11-01T07:35:32.822Z,8.63
2022-11-01T07:38:02.744Z,6.95
2022-11-01T07:40:31.915Z,10.45
2022-11-01T07:43:00.271Z,12.38
2022-11-01T07:45:28.989Z,6.72
2022-11-01T07:48:10.274Z,6.75
2022-11-01T07:50:38.229Z,8.73
2022-11-01T07:53:04.760Z,7.30
2022-11-01T07:55:31.904Z,9.02
2022-11-01T07:57:58.674Z,8.32
2022-11-01T08:00:25.534Z,9.57
2022-11-01T08:02:52.336Z,10.10
2022-11-01T08:05:19.033Z,13.80
2022-11-01T08:07:45.776Z,12.25
2022-11-01T08:10:13.456Z,10.63
2022-11-01T08:12:40.061Z,9.48
2022-11-01T08:15:07.238Z,12.98
2022-11-01T08:17:34.701Z,10.52
2022-11-01T08:20:04.280Z,4.97
2022-11-01T08:22:30.975Z,10.85
2022-11-01T08:24:57.563Z,17.52
2022-11-01T08:27:24.201Z,15.60
2022-11-01T08:29:50.832Z,10.35
2022-11-01T08:32:21.828Z,8.65
2022-11-01T08:34:49.077Z,15.15
2022-11-01T08:37:15.749Z,14.27
2022-11-01T08:39:42.398Z,7.68
2022-11-01T08:42:09.545Z,11.15
2022-11-01T08:44:36.232Z,11.27
2022-11-01T08:47:02.928Z,19.10
2022-11-01T08:49:29.583Z,19.65
2022-11-01T08:51:56.344Z,17.92
2022-11-01T08:54:23.189Z,15.00
2022-11-01T08:56:49.822Z,18.13
2022-11-01T08:59:16.620Z,14.43
2022-11-01T09:01:43.340Z,16.05
2022-11-01T09:04:10.221Z,12.27
2022-11-01T09:06:36.812Z,17.35
2022-11-01T09:09:04.481Z,17.48
2022-11-01T09:11:31.162Z,13.60
2022-11-01T09:13:58.061Z,21.48
2022-11-01T09:16:25.063Z,26.27
2022-11-01T09:18:51.868Z,15.73
2022-11-01T09:21:18.615Z,18.63
2022-11-01T09:23:46.454Z,22.25
2022-11-01T09:26:13.424Z,16.95
2022-11-01T09:28:40.613Z,13.90
2022-11-01T09:31:20.201Z,15.20
2022-11-01T09:33:47.908Z,13.73
2022-11-01T09:36:14.566Z,12.75
2022-11-01T09:38:41.171Z,14.43
2022-11-01T09:41:35.522Z,16.30
2022-11-01T09:44:04.737Z,21.20
2022-11-01T09:46:40.154Z,21.73
2022-11-01T09:49:07.384Z,16.35
2022-11-01T09:51:34.051Z,16.55
2022-11-01T09:54:04.441Z,15.10
2022-11-01T09:56:52.947Z,21.00
2022-11-01T09:59:19.854Z,15.07
2022-11-01T10:02:09.756Z,11.90
2022-11-01T10:05:04.091Z,12.23
2022-11-01T10:07:33.747Z,14.65
2022-11-01T10:10:19.247Z,14.90
2022-11-01T10:12:59.355Z,15.43
2022-11-01T10:15:34.701Z,18.77
2022-11-01T10:18:20.251Z,13.02
2022-11-01T10:20:47.664Z,12.25
2022-11-01T10:23:17.427Z,10.65
2022-11-01T10:25:51.354Z,21.80
2022-11-01T10:28:32.627Z,16.42
2022-11-01T10:31:06.684Z,23.02
2022-11-01T10:33:41.640Z,18.13
2022-11-01T10:36:18.570Z,13.43
2022-11-01T10:39:37.287Z,9.13
2022-11-01T10:41:51.177Z,19.98
2022-11-01T10:44:34.455Z,20.92
2022-11-01T10:47:05.033Z,16.10
2022-11-01T10:52:30.724Z,11.13
2022-11-01T10:54:59.642Z,21.00
2022-11-01T10:57:39.509Z,25.83
2022-11-01T11:00:15.295Z,13.02
2022-11-01T11:03:04.839Z,15.82
2022-11-01T11:05:33.251Z,9.82
2022-11-01T11:08:03.686Z,16.90
2022-11-01T11:10:30.735Z,13.95
2022-11-01T11:13:02.903Z,16.27
2022-11-01T11:15:43.184Z,14.00
2022-11-01T11:18:28.020Z,10.10
2022-11-01T11:21:02.050Z,14.82
2022-11-01T11:23:31.042Z,14.93
2022-11-01T11:26:09.819Z,10.15
2022-11-01T11:28:44.211Z,16.98
2022-11-01T11:31:26.016Z,13.30
2022-11-01T11:33:56.775Z,23.73
2022-11-01T11:36:40.927Z,20.65
2022-11-01T11:39:23.338Z,17.80
2022-11-01T11:41:50.038Z,10.68
2022-11-01T11:44:34.584Z,18.02
2022-11-01T11:47:03.156Z,25.35
2022-11-01T11:49:29.909Z,19.65
2022-11-01T11:51:56.602Z,22.85
2022-11-01T11:54:43.185Z,20.13
2022-11-01T11:57:24.995Z,15.05
2022-11-01T11:59:55.253Z,22.00
2022-11-01T12:02:28.567Z,18.20
2022-11-01T12:05:03.726Z,20.05
2022-11-01T12:07:57.951Z,18.45
2022-11-01T12:10:45.493Z,25.05
2022-11-01T12:13:33.664Z,12.85
2022-11-01T12:16:09.658Z,22.02
2022-11-01T12:19:03.831Z,17.85
2022-11-01T12:21:36.732Z,17.73
2022-11-01T12:24:26.987Z,19.52
2022-11-01T12:27:02.633Z,13.82
2022-11-01T12:29:44.983Z,15.88
2022-11-01T12:34:44.276Z,12.40
2022-11-01T12:37:16.061Z,14.35
2022-11-01T12:40:23.489Z,18.58
2022-11-01T12:42:55.105Z,15.48
2022-11-01T12:45:24.731Z,19.67
2022-11-01T12:47:58.473Z,16.48
2022-11-01T12:50:33.172Z,21.88
2022-11-01T12:53:13.199Z,18.90
2022-11-01T12:55:42.094Z,10.38
2022-11-01T12:58:16.124Z,14.45
2022-11-01T13:01:01.301Z,16.98
2022-11-01T13:04:06.059Z,17.48
2022-11-01T13:06:32.587Z,19.83
2022-11-01T13:09:07.557Z,19.40
2022-11-01T13:11:46.733Z,12.10
2022-11-01T13:14:44.036Z,12.68
2022-11-01T13:17:27.204Z,13.80
2022-11-01T13:20:23.368Z,19.85
2022-11-01T13:22:56.124Z,15.73
2022-11-01T13:25:31.191Z,20.08
2022-11-01T13:28:13.929Z,13.00
2022-11-01T13:30:50.146Z,18.00
2022-11-01T13:33:43.449Z,10.20
2022-11-01T13:36:36.785Z,16.35
2022-11-01T13:39:40.970Z,10.23
2022-11-01T13:42:29.048Z,11.60
2022-11-01T13:45:07.808Z,18.13
2022-11-01T13:48:14.449Z,13.98
2022-11-01T13:51:12.964Z,15.75
2022-11-01T13:53:58.912Z,10.60
2022-11-01T13:56:37.117Z,13.10
2022-11-01T13:59:13.710Z,13.60
2022-11-01T14:01:40.790Z,16.80
2022-11-01T14:04:35.093Z,16.13
2022-11-01T14:07:10.891Z,29.45
2022-11-01T14:09:43.629Z,15.70
2022-11-01T14:12:29.275Z,13.57
2022-11-01T14:15:22.815Z,15.27
2022-11-01T14:18:07.623Z,12.65
2022-11-01T14:20:54.236Z,10.60
2022-11-01T14:23:30.105Z,24.23
2022-11-01T14:26:21.431Z,10.95
2022-11-01T14:28:50.005Z,11.63
2022-11-01T14:31:19.910Z,17.70
2022-11-01T14:33:48.434Z,15.07
2022-11-01T14:36:17.951Z,16.83
2022-11-01T14:39:22.463Z,11.65
2022-11-01T14:41:55.991Z,14.27
2022-11-01T14:44:31.300Z,17.77
2022-11-01T14:47:02.012Z,14.52
2022-11-01T14:49:40.845Z,16.88
2022-11-01T14:52:22.579Z,12.20
2022-11-01T14:55:05.850Z,6.22
2022-11-01T14:57:34.705Z,12.63
2022-11-01T15:00:20.931Z,16.40
2022-11-01T15:02:47.734Z,11.07
2022-11-01T15:05:16.804Z,21.80
2022-11-01T15:07:48.777Z,15.27
2022-11-01T15:10:15.464Z,11.13
2022-11-01T15:13:01.686Z,15.68
2022-11-01T15:15:37.494Z,12.82
2022-11-01T15:18:20.406Z,11.40
2022-11-01T15:20:50.446Z,14.32
2022-11-01T15:23:27.016Z,12.60
2022-11-01T15:25:56.461Z,7.72
2022-11-01T15:28:27.012Z,8.63
2022-11-01T15:30:56.780Z,6.85
2022-11-01T15:33:28.182Z,8.82
2022-11-01T15:35:59.314Z,11.57
2022-11-01T15:38:27.310Z,10.73
2022-11-01T15:40:54.528Z,16.85
2022-11-01T15:43:24.062Z,11.63
2022-11-01T15:45:59.411Z,7.88
2022-11-01T15:48:30.838Z,11.73
2022-11-01T15:51:01.029Z,8.45
2022-11-01T15:53:32.653Z,8.25
2022-11-01T15:56:15.233Z,8.20
2022-11-01T16:01:26.548Z,14.23
2022-11-01T16:04:04.991Z,5.78
2022-11-01T16:06:40.942Z,7.38
2022-11-01T16:09:44.529Z,10.18
2022-11-01T16:12:21.640Z,8.93
2022-11-01T16:15:18.008Z,8.48
2022-11-01T16:17:44.949Z,7.22
2022-11-01T16:21:00.541Z,10.23
2022-11-01T16:23:32.536Z,3.92
2022-11-01T16:26:04.133Z,4.85
2022-11-01T16:28:38.756Z,3.90
2022-11-01T16:31:22.824Z,2.05
2022-11-01T16:33:49.716Z,4.57
2022-11-01T16:36:19.402Z,5.03
2022-11-01T16:38:47.339Z,5.35
2022-11-01T16:41:24.320Z,2.08
2022-11-01T16:43:56.388Z,6.55
2022-11-01T16:46:24.971Z,3.55
2022-11-01T16:48:54.561Z,5.53
2022-11-01T16:51:24.962Z,7.20
2022-11-01T16:53:51.634Z,5.10
2022-11-01T16:56:36.241Z,9.00
2022-11-01T16:59:35.847Z,5.45
2022-11-01T17:02:15.318Z,5.28
2022-11-01T17:04:42.763Z,14.98
2022-11-01T17:07:12.028Z,10.23
2022-11-01T17:09:39.717Z,9.00
2022-11-01T17:12:07.724Z,6.00
2022-11-01T17:14:38.047Z,2.83
2022-11-01T17:17:10.741Z,7.30
2022-11-01T17:19:41.061Z,7.22
2022-11-01T17:22:20.788Z,9.13
2022-11-01T17:24:47.809Z,5.97
2022-11-01T17:27:15.694Z,6.93
2022-11-01T17:29:43.130Z,6.93
2022-11-01T17:32:11.408Z,5.75
2022-11-01T17:34:38.985Z,12.45
2022-11-01T17:37:06.446Z,10.48
2022-11-01T17:39:34.653Z,9.13
2022-11-01T17:42:01.288Z,8.75
2022-11-01T17:44:27.967Z,6.10
2022-11-01T17:46:54.652Z,8.00
2022-11-01T17:49:23.724Z,6.95
2022-11-01T17:51:54.776Z,7.18
2022-11-01T17:54:22.915Z,5.32
2022-11-01T17:56:51.213Z,8.55
2022-11-01T17:59:18.107Z,5.97
2022-11-01T18:01:45.160Z,8.15
2022-11-01T18:04:11.964Z,7.88
2022-11-01T18:06:40.681Z,21.95
2022-11-01T18:09:19.906Z,10.02
2022-11-01T18:11:58.751Z,5.55
2022-11-01T18:14:47.074Z,10.18
2022-11-01T18:17:41.085Z,8.52
2022-11-01T18:20:14.524Z,6.10
2022-11-01T18:22:53.106Z,10.55
2022-11-01T18:25:26.073Z,7.68
2022-11-01T18:27:55.269Z,11.90
2022-11-01T18:30:22.095Z,5.28
2022-11-01T18:32:57.876Z,7.78
2022-11-01T18:35:40.374Z,4.50
2022-11-01T18:40:56.200Z,10.10
2022-11-01T18:43:23.634Z,8.38
2022-11-01T18:46:19.178Z,6.10
2022-11-01T18:48:37.569Z,6.78
2022-11-01T18:51:16.264Z,3.95
2022-11-01T18:53:44.455Z,5.50
2022-11-01T18:56:18.312Z,5.47
2022-11-01T18:58:45.029Z,3.65
2022-11-01T19:01:14.821Z,4.97
2022-11-01T19:03:42.282Z,6.30
2022-11-01T19:06:22.248Z,9.45
2022-11-01T19:08:56.007Z,7.38
2022-11-01T19:11:23.499Z,9.80
2022-11-01T19:13:50.752Z,8.07
2022-11-01T19:16:19.457Z,5.22
2022-11-01T19:18:48.132Z,7.93
2022-11-01T19:21:17.625Z,6.70
2022-11-01T19:23:50.065Z,3.58
2022-11-01T19:26:27.911Z,4.25
2022-11-01T19:28:58.921Z,2.72
2022-11-01T19:31:30.500Z,6.50
2022-11-01T19:34:00.098Z,4.43
2022-11-01T19:36:36.765Z,7.68
2022-11-01T19:39:14.122Z,9.55
2022-11-01T19:41:41.016Z,7.10
2022-11-01T19:44:18.410Z,4.65
2022-11-01T19:46:45.020Z,4.82
2022-11-01T19:49:25.923Z,7.85
2022-11-01T19:52:12.202Z,5.75
2022-11-01T19:54:41.604Z,3.33
2022-11-01T19:57:26.521Z,4.28
2022-11-01T19:59:58.026Z,2.58
2022-11-01T20:02:25.111Z,4.45
2022-11-01T20:04:57.569Z,3.30
2022-11-01T20:09:58.584Z,2.95
2022-11-01T20:12:25.503Z,6.93
2022-11-01T20:14:52.184Z,4.88
2022-11-01T20:17:18.782Z,4.97
2022-11-01T20:19:45.465Z,5.32
2022-11-01T20:22:12.300Z,6.05
2022-11-01T20:24:38.927Z,5.55
2022-11-01T20:27:05.787Z,4.03
2022-11-01T20:29:32.387Z,4.70
2022-11-01T20:31:59.056Z,4.72
2022-11-01T20:34:27.239Z,7.55
2022-11-01T20:37:27.398Z,7.15
2022-11-01T20:39:40.544Z,5.40
2022-11-01T20:42:08.073Z,9.00
2022-11-01T20:44:34.724Z,9.27
2022-11-01T20:47:01.334Z,6.25
2022-11-01T20:49:28.003Z,6.07
2022-11-01T20:51:57.673Z,6.90
2022-11-01T20:54:31.265Z,10.98
2022-11-01T20:56:57.921Z,4.40
2022-11-01T20:59:24.815Z,6.63
2022-11-01T21:01:51.756Z,6.05
2022-11-01T21:04:19.412Z,9.50
2022-11-01T21:06:46.390Z,4.90
2022-11-01T21:09:37.495Z,3.70
2022-11-01T21:12:27.373Z,5.82
2022-11-01T21:14:55.009Z,5.68
2022-11-01T21:17:21.611Z,5.68
2022-11-01T21:19:57.254Z,5.45
2022-11-01T21:22:24.097Z,3.85
2022-11-01T21:24:51.466Z,8.88
2022-11-01T21:30:14.932Z,4.82
2022-11-01T21:32:45.005Z,6.28
2022-11-01T21:35:21.115Z,4.28
2022-11-01T21:37:50.758Z,6.40
2022-11-01T21:40:29.325Z,4.32
2022-11-01T21:42:57.478Z,8.43
2022-11-01T21:45:31.569Z,5.68
2022-11-01T21:48:02.687Z,5.97
2022-11-01T21:50:29.691Z,7.18
2022-11-01T21:52:56.302Z,7.57
2022-11-01T21:55:22.911Z,6.65
2022-11-01T21:57:49.573Z,5.80
2022-11-01T22:00:16.556Z,5.15
2022-11-01T22:02:43.304Z,8.63
2022-11-01T22:05:10.609Z,4.53
2022-11-01T22:07:37.202Z,8.98
2022-11-01T22:10:04.312Z,9.18
2022-11-01T22:12:30.917Z,5.50
2022-11-01T22:14:57.515Z,9.93
2022-11-01T22:17:24.197Z,3.10
2022-11-01T22:19:50.797Z,3.42
2022-11-01T22:22:17.450Z,7.35
2022-11-01T22:24:44.739Z,6.95
2022-11-01T22:27:11.353Z,8.27
2022-11-01T22:29:37.935Z,13.90
2022-11-01T22:32:04.709Z,5.55
2022-11-01T22:34:31.366Z,7.30
2022-11-01T22:36:58.165Z,4.85
2022-11-01T22:39:26.883Z,8.52
2022-11-01T22:41:54.556Z,8.13
2022-11-01T22:44:30.857Z,9.88
2022-11-01T22:47:01.065Z,11.35
2022-11-01T22:49:33.851Z,6.25
2022-11-01T22:52:05.289Z,7.50
2022-11-01T22:54:47.724Z,10.53
2022-11-01T23:00:22.808Z,8.18
2022-11-01T23:02:49.615Z,10.95
2022-11-01T23:05:26.144Z,12.68
2022-11-01T23:07:55.663Z,5.20
2022-11-01T23:10:27.284Z,5.25
2022-11-01T23:13:45.275Z,9.50
2022-11-01T23:16:24.668Z,6.72
2022-11-01T23:18:53.400Z,12.02
2022-11-01T23:21:21.626Z,7.40
2022-11-01T23:23:48.949Z,3.13
2022-11-01T23:26:17.704Z,9.07
2022-11-01T23:28:52.978Z,5.43
2022-11-01T23:31:20.835Z,5.10
2022-11-01T23:33:49.035Z,8.20
2022-11-01T23:36:30.497Z,7.97
2022-11-01T23:39:03.222Z,10.35
2022-11-01T23:41:53.684Z,10.80
2022-11-01T23:44:29.122Z,5.75
2022-11-01T23:47:19.787Z,3.58
2022-11-01T23:49:49.509Z,4.43
2022-11-01T23:52:31.015Z,6.57
2022-11-01T23:54:57.934Z,5.35
2022-11-01T23:57:24.712Z,3.42
2022-11-01T23:59:52.113Z,6.18
